createdAt,value
2022-10-06T00:07:23.287Z,6.91
2022-10-06T00:17:27.665Z,6.70
2022-10-06T00:27:41.344Z,6.56
2022-10-06T00:37:45.019Z,6.47
2022-10-06T00:47:48.985Z,6.38
2022-10-06T00:57:53.987Z,6.24
2022-10-06T01:07:58.213Z,6.20
2022-10-06T01:18:13.525Z,6.17
2022-10-06T01:28:17.464Z,6.10
2022-10-06T01:38:22.359Z,5.94
2022-10-06T01:48:30.430Z,5.83
2022-10-06T01:58:36.036Z,5.78
2022-10-06T02:08:39.913Z,5.75
2022-10-06T02:18:44.103Z,5.78
2022-10-06T02:28:50.292Z,5.79
2022-10-06T02:38:57.861Z,5.84
2022-10-06T02:49:01.911Z,5.83
2022-10-06T02:59:05.712Z,5.79
2022-10-06T03:09:11.379Z,5.75
2022-10-06T03:19:17.239Z,5.73
2022-10-06T03:29:22.020Z,5.68
2022-10-06T03:39:31.222Z,5.67
2022-10-06T03:49:35.097Z,5.62
2022-10-06T03:59:38.967Z,5.60
2022-10-06T04:09:43.059Z,5.52
2022-10-06T04:19:48.247Z,5.52
2022-10-06T04:29:52.218Z,5.49
2022-10-06T04:39:56.693Z,5.45
2022-10-06T04:50:01.205Z,5.39
2022-10-06T05:00:25.356Z,5.37
2022-10-06T05:10:30.013Z,5.30
2022-10-06T05:20:34.180Z,5.29
2022-10-06T05:30:39.059Z,5.32
2022-10-06T05:40:43.877Z,5.50
2022-10-06T05:50:49.719Z,5.80
2022-10-06T06:00:53.763Z,6.18
2022-10-06T06:11:06.209Z,6.66
2022-10-06T06:21:11.634Z,8.01
2022-10-06T06:31:20.491Z,9.68
2022-10-06T06:41:29.234Z,11.26
2022-10-06T06:51:42.809Z,12.79
2022-10-06T07:12:38.591Z,14.98
2022-10-06T07:23:02.649Z,15.82
2022-10-06T07:33:10.542Z,16.75
2022-10-06T07:43:16.325Z,17.05
2022-10-06T07:53:28.633Z,17.02
2022-10-06T08:03:42.072Z,16.97
2022-10-06T08:13:48.859Z,16.96
2022-10-06T08:23:54.118Z,17.00
2022-10-06T08:33:58.601Z,17.17
2022-10-06T08:44:07.902Z,17.46
2022-10-06T08:54:37.690Z,17.84
2022-10-06T09:04:41.727Z,18.06
2022-10-06T09:15:21.121Z,18.25
2022-10-06T09:25:29.793Z,18.38
2022-10-06T09:35:34.112Z,18.36
2022-10-06T09:45:38.165Z,18.60
2022-10-06T09:55:51.791Z,18.90
2022-10-06T10:05:55.915Z,19.12
2022-10-06T10:16:02.923Z,19.23
2022-10-06T10:26:36.459Z,19.27
2022-10-06T10:37:00.337Z,19.53
2022-10-06T10:47:42.283Z,19.82
2022-10-06T10:57:49.585Z,19.92
2022-10-06T11:08:40.065Z,20.11
2022-10-06T11:19:03.196Z,20.27
2022-10-06T11:29:13.290Z,20.41
2022-10-06T11:39:17.846Z,20.42
2022-10-06T11:49:30.834Z,20.31
2022-10-06T11:59:35.351Z,20.08
2022-10-06T12:09:51.009Z,19.94
2022-10-06T12:20:26.211Z,19.82
2022-10-06T12:30:33.472Z,19.58
2022-10-06T12:40:49.656Z,19.64
2022-10-06T12:51:35.106Z,19.77
2022-10-06T13:01:39.609Z,19.81
2022-10-06T13:11:43.933Z,19.91
2022-10-06T13:21:48.419Z,20.08
2022-10-06T13:31:55.302Z,20.22
2022-10-06T13:42:16.943Z,20.13
2022-10-06T13:52:44.236Z,20.08
2022-10-06T14:02:56.945Z,19.96
2022-10-06T14:13:01.974Z,19.78
2022-10-06T14:23:33.954Z,19.52
2022-10-06T14:33:37.998Z,19.25
2022-10-06T14:43:42.486Z,18.93
2022-10-06T14:53:58.529Z,18.66
2022-10-06T15:04:08.942Z,18.44
2022-10-06T15:14:13.020Z,18.18
2022-10-06T15:24:19.660Z,17.86
2022-10-06T15:34:29.325Z,17.59
2022-10-06T15:44:35.155Z,17.35
2022-10-06T15:54:41.178Z,17.05
2022-10-06T16:04:56.168Z,16.87
2022-10-06T16:14:59.999Z,16.72
2022-10-06T16:25:04.810Z,16.58
2022-10-06T16:35:09.167Z,16.50
2022-10-06T16:45:14.979Z,16.32
2022-10-06T16:55:18.847Z,16.08
2022-10-06T17:05:22.607Z,15.88
2022-10-06T17:15:30.079Z,15.67
2022-10-06T17:25:36.691Z,15.49
2022-10-06T17:35:41.079Z,15.39
2022-10-06T17:45:44.988Z,15.25
2022-10-06T17:55:49.939Z,15.04
2022-10-06T18:05:55.660Z,14.84
2022-10-06T18:16:01.544Z,14.81
2022-10-06T18:26:06.875Z,14.73
2022-10-06T18:36:53.530Z,14.66
2022-10-06T18:47:15.921Z,14.45
2022-10-06T18:57:25.114Z,14.35
2022-10-06T19:07:31.429Z,14.26
2022-10-06T19:17:36.426Z,14.21
2022-10-06T19:27:41.333Z,14.21
2022-10-06T19:37:46.813Z,14.31
2022-10-06T19:47:52.605Z,14.41
2022-10-06T19:57:57.848Z,14.39
2022-10-06T20:08:02.151Z,14.43
2022-10-06T20:18:06.715Z,14.49
2022-10-06T20:28:11.189Z,14.64
2022-10-06T20:38:15.169Z,14.61
2022-10-06T20:48:18.975Z,14.58
2022-10-06T20:58:24.578Z,14.57
2022-10-06T21:08:29.383Z,14.65
2022-10-06T21:18:34.071Z,14.66
2022-10-06T21:28:40.226Z,14.68
2022-10-06T21:38:49.809Z,14.65
2022-10-06T21:48:56.547Z,14.57
2022-10-06T21:59:01.537Z,14.45
2022-10-06T22:09:08.161Z,14.39
2022-10-06T22:19:14.410Z,14.33
2022-10-06T22:29:20.316Z,14.21
2022-10-06T22:39:24.763Z,13.98
2022-10-06T22:49:28.807Z,13.92
2022-10-06T22:59:32.609Z,13.91
2022-10-06T23:09:37.183Z,13.91
2022-10-06T23:19:40.869Z,13.93
2022-10-06T23:29:44.732Z,13.86
2022-10-06T23:39:48.705Z,13.72
2022-10-06T23:49:52.893Z,13.47
2022-10-06T23:59:56.750Z,13.14
